Aérodrome :
LOGIN :

S'inscrire | Disclaimer

   EN    FR    IT 

 










Légende :    VFR   VFR Marginal   IFR   IFR Intensif   IFR Très Intensif
Visi : 
Plafond : 
>= 8 km
>= 3000ft
5 à 8 km
1000 à 3000 ft
1500m à 5 km
500 à 1000 ft
800 à 1500m
200 à 500 ft
< 800m
< 200 ft
Symboles :   Orages  Brouillard  Fortes neiges  Fortes précipitations  Vent > 20 kt
SIGMETs :   Divers  Orages  Givrage  Turbulence  Onde Orograph.  Cendres Volcan.






- Altitude de l'aérodrome : 82 ft
- Code IATA : AAR


EKAH - Aarhus Tirstrup

DERNIER METAR :
  • 271150Z AUTO 24004KT 190V270 9999NDV BKN006/// BKN019/// BKN027/// 03/02 Q0997

METARs EXPIRÉS :
  • 271120Z AUTO 19002KT 9999NDV BKN006/// 03/02 Q0997
  • 271050Z AUTO 14002KT 9999NDV R10R/P1500N R28L/1400U -SHRA BKN007/// OVC021/// 02/02 Q0997
  • 271020Z AUTO 16004KT 120V210 9999NDV -SHRA OVC010/// 02/01 Q0997
  • 270950Z AUTO 16004KT 120V210 9999NDV OVC014/// 02/00 Q0997
  • 270920Z AUTO 14004KT 110V170 9999NDV BKN016/// OVC028/// 02/M00 Q0997

TAF TAF EKAH
Valide du 27 à 12h jusqu'au 28 à 12h UTC


271108Z 2712/2812 23005KT 9999 BKN020
TEMPO 2712/2722 3000 SHRASN BKN008 SCT020CB
BECMG 2722/2724 2000 SHRASN BKN005 BKN020CB
BECMG 2800/2802 9999 NSW BKN020
TEMPO 2802/2809 4000 -SHRASN BKN008 SCT020CB
BECMG 2806/2809 27015KT
TEMPO 2809/2812 SCT020CB



MET'MAP, la Météo Aéronautique d'un coup d'oeil ! - Copyright ORBIFLY Décembre 2007 - Disclaimer

ORBIFLY MET'MAP TEAM :

Programmation & Développement : Alexandra Zaïnal
Sur une idée originale de : Baudouin d'Aumeries
Assistance à la programmation : Marc-Olivier Méhu
Soutien technique & logistique : Manuel Goepfert

Contact : metmap@orbifly.com




SOURCES & CREDITS :

   NOAA